AFR601 SOCA-TFFF
Flight info
| Callsign | AFR601 |
|---|---|
| Flight time | 2h 1m |
| Altitude | 38000 |
| Route | SILAT1A SILAT UA247 BUXEX UA555 BGI DCT BORUS BORUS2V |
| Aircraft | A320/M-SDE2E3FGIJ1RWY/HB1 |
Departure
| Time | 2026-05-05 16:58 |
|---|---|
| Airport | Cayenne – Félix Eboué Airport (SOCA) |
Arrival
| Time | 2026-05-05 18:59 |
|---|---|
| Airport | Martinique Aimé Césaire International Airport (TFFF) |
| Time | Latitude | Longitude | Altitude | Speed | Heading |
|---|---|---|---|---|---|
| 2026-05-05 16:25 | 4.82151 | -52.36362 | 29 ft | 0 kts | 335° |
| 2026-05-05 16:44 | 4.82137 | -52.36356 | 29 ft | 4 kts | 335° |
| 2026-05-05 16:45 | 4.82118 | -52.36347 | 29 ft | 3 kts | 335° |
| 2026-05-05 16:45 | 4.82093 | -52.36336 | 29 ft | 4 kts | 332° |
| 2026-05-05 16:45 | 4.82079 | -52.36328 | 29 ft | 3 kts | 253° |
| 2026-05-05 16:45 | 4.82079 | -52.36324 | 29 ft | 0 kts | 244° |
| 2026-05-05 16:47 | 4.82079 | -52.36326 | 29 ft | 1 kts | 244° |
| 2026-05-05 16:47 | 4.82084 | -52.36330 | 29 ft | 1 kts | 322° |
| 2026-05-05 16:48 | 4.82089 | -52.36314 | 29 ft | 5 kts | 78° |
| 2026-05-05 16:48 | 4.82076 | -52.36264 | 29 ft | 11 kts | 137° |
| 2026-05-05 16:48 | 4.81987 | -52.36228 | 29 ft | 16 kts | 178° |
| 2026-05-05 16:48 | 4.81916 | -52.36307 | 29 ft | 16 kts | 245° |
| 2026-05-05 16:49 | 4.81871 | -52.36406 | 29 ft | 15 kts | 244° |
| 2026-05-05 16:49 | 4.81826 | -52.36501 | 29 ft | 15 kts | 244° |
| 2026-05-05 16:49 | 4.81782 | -52.36594 | 28 ft | 14 kts | 245° |
| 2026-05-05 16:49 | 4.81739 | -52.36685 | 28 ft | 14 kts | 246° |
| 2026-05-05 16:50 | 4.81700 | -52.36776 | 28 ft | 14 kts | 246° |
| 2026-05-05 16:50 | 4.81661 | -52.36864 | 28 ft | 14 kts | 246° |
| 2026-05-05 16:50 | 4.81622 | -52.36949 | 28 ft | 13 kts | 243° |
| 2026-05-05 16:50 | 4.81582 | -52.37029 | 28 ft | 13 kts | 244° |
| 2026-05-05 16:51 | 4.81543 | -52.37109 | 28 ft | 13 kts | 244° |
| 2026-05-05 16:51 | 4.81504 | -52.37192 | 27 ft | 13 kts | 245° |
| 2026-05-05 16:51 | 4.81467 | -52.37275 | 27 ft | 13 kts | 246° |
| 2026-05-05 16:51 | 4.81442 | -52.37360 | 27 ft | 13 kts | 271° |
| 2026-05-05 16:52 | 4.81446 | -52.37396 | 27 ft | 0 kts | 277° |
| 2026-05-05 16:56 | 4.81445 | -52.37398 | 27 ft | 2 kts | 266° |
| 2026-05-05 16:56 | 4.81420 | -52.37379 | 27 ft | 11 kts | 76° |
| 2026-05-05 16:57 | 4.81432 | -52.37353 | 27 ft | 11 kts | 64° |
| 2026-05-05 16:57 | 4.81585 | -52.37025 | 28 ft | 88 kts | 65° |
| 2026-05-05 16:57 | 4.81926 | -52.36278 | 34 ft | 145 kts | 65° |
| 2026-05-05 16:57 | 4.82367 | -52.35325 | 572 ft | 153 kts | 63° |
| 2026-05-05 16:58 | 4.82789 | -52.34349 | 1410 ft | 153 kts | 70° |
| 2026-05-05 16:58 | 4.83087 | -52.33273 | 2011 ft | 171 kts | 76° |
| 2026-05-05 16:58 | 4.83404 | -52.32047 | 2435 ft | 193 kts | 75° |
| 2026-05-05 16:58 | 4.83758 | -52.30682 | 2838 ft | 213 kts | 75° |
| 2026-05-05 16:59 | 4.84152 | -52.29167 | 3372 ft | 234 kts | 76° |
| 2026-05-05 16:59 | 4.84566 | -52.27562 | 4306 ft | 240 kts | 76° |
| 2026-05-05 16:59 | 4.84990 | -52.25927 | 5227 ft | 244 kts | 76° |
| 2026-05-05 16:59 | 4.85419 | -52.24269 | 6135 ft | 248 kts | 76° |
| 2026-05-05 17:00 | 4.85856 | -52.22581 | 7052 ft | 251 kts | 76° |
| 2026-05-05 17:00 | 4.86362 | -52.20898 | 7915 ft | 255 kts | 65° |
| 2026-05-05 17:00 | 4.87535 | -52.19547 | 8772 ft | 266 kts | 37° |
| 2026-05-05 17:00 | 4.89309 | -52.18935 | 9608 ft | 281 kts | 8° |
| 2026-05-05 17:01 | 4.91269 | -52.19306 | 10366 ft | 297 kts | 342° |
| 2026-05-05 17:01 | 4.93172 | -52.20137 | 11189 ft | 300 kts | 341° |
| 2026-05-05 17:01 | 4.95068 | -52.20978 | 11939 ft | 303 kts | 340° |
| 2026-05-05 17:01 | 4.97004 | -52.21836 | 12688 ft | 306 kts | 340° |
| 2026-05-05 17:02 | 4.98965 | -52.22700 | 13445 ft | 309 kts | 340° |
| 2026-05-05 17:02 | 5.00945 | -52.23567 | 14144 ft | 312 kts | 340° |
| 2026-05-05 17:02 | 5.02939 | -52.24439 | 14800 ft | 314 kts | 340° |
| 2026-05-05 17:02 | 5.04949 | -52.25318 | 15457 ft | 316 kts | 340° |
| 2026-05-05 17:03 | 5.06974 | -52.26203 | 16118 ft | 318 kts | 339° |
| 2026-05-05 17:03 | 5.09011 | -52.27094 | 16770 ft | 321 kts | 339° |
| 2026-05-05 17:03 | 5.11001 | -52.28143 | 17391 ft | 328 kts | 329° |
| 2026-05-05 17:03 | 5.12915 | -52.29522 | 17534 ft | 349 kts | 326° |
| 2026-05-05 17:04 | 5.14918 | -52.31003 | 17667 ft | 367 kts | 326° |
| 2026-05-05 17:04 | 5.17013 | -52.32566 | 17925 ft | 380 kts | 324° |
| 2026-05-05 17:04 | 5.19146 | -52.34163 | 18453 ft | 384 kts | 325° |
| 2026-05-05 17:04 | 5.21301 | -52.35772 | 18912 ft | 388 kts | 325° |
| 2026-05-05 17:05 | 5.23477 | -52.37391 | 19411 ft | 391 kts | 325° |
| 2026-05-05 17:05 | 5.25673 | -52.39021 | 19903 ft | 394 kts | 324° |
| 2026-05-05 17:05 | 5.27880 | -52.40657 | 20428 ft | 396 kts | 324° |
| 2026-05-05 17:05 | 5.30102 | -52.42305 | 20933 ft | 398 kts | 324° |
| 2026-05-05 17:06 | 5.32339 | -52.43963 | 21446 ft | 401 kts | 323° |
| 2026-05-05 17:06 | 5.34591 | -52.45631 | 21956 ft | 404 kts | 323° |
| 2026-05-05 17:06 | 5.36854 | -52.47310 | 22469 ft | 406 kts | 323° |
| 2026-05-05 17:06 | 5.39133 | -52.49002 | 22965 ft | 409 kts | 323° |
| 2026-05-05 17:07 | 5.41429 | -52.50703 | 23477 ft | 412 kts | 323° |
| 2026-05-05 17:07 | 5.43710 | -52.52396 | 23878 ft | 414 kts | 323° |
| 2026-05-05 17:07 | 5.45981 | -52.54187 | 24257 ft | 416 kts | 316° |
| 2026-05-05 17:07 | 5.47976 | -52.56296 | 24638 ft | 418 kts | 310° |
| 2026-05-05 17:08 | 5.49914 | -52.58488 | 25022 ft | 420 kts | 310° |
| 2026-05-05 17:08 | 5.51859 | -52.60687 | 25403 ft | 423 kts | 310° |
| 2026-05-05 17:08 | 5.53817 | -52.62898 | 25763 ft | 425 kts | 310° |
| 2026-05-05 17:08 | 5.55789 | -52.65121 | 26128 ft | 428 kts | 310° |
| 2026-05-05 17:09 | 5.57775 | -52.67355 | 26484 ft | 430 kts | 310° |
| 2026-05-05 17:09 | 5.59772 | -52.69603 | 26836 ft | 432 kts | 310° |
| 2026-05-05 17:09 | 5.61776 | -52.71859 | 27173 ft | 435 kts | 310° |
| 2026-05-05 17:09 | 5.63792 | -52.74133 | 27494 ft | 437 kts | 310° |
| 2026-05-05 17:10 | 5.65819 | -52.76420 | 27822 ft | 439 kts | 309° |
| 2026-05-05 17:10 | 5.67856 | -52.78718 | 28127 ft | 442 kts | 309° |
| 2026-05-05 17:10 | 5.69907 | -52.81034 | 28443 ft | 445 kts | 310° |
| 2026-05-05 17:10 | 5.71966 | -52.83359 | 28753 ft | 447 kts | 310° |
| 2026-05-05 17:11 | 5.74036 | -52.85696 | 29062 ft | 449 kts | 310° |
| 2026-05-05 17:11 | 5.76121 | -52.88046 | 29360 ft | 451 kts | 309° |
| 2026-05-05 17:11 | 5.78213 | -52.90406 | 29656 ft | 454 kts | 310° |
| 2026-05-05 17:11 | 5.80318 | -52.92779 | 29951 ft | 456 kts | 310° |
| 2026-05-05 17:12 | 5.82430 | -52.95164 | 30205 ft | 458 kts | 309° |
| 2026-05-05 17:12 | 5.84553 | -52.97561 | 30415 ft | 461 kts | 309° |
| 2026-05-05 17:12 | 5.86692 | -52.99977 | 30613 ft | 464 kts | 310° |
| 2026-05-05 17:12 | 5.88841 | -53.02408 | 30799 ft | 467 kts | 310° |
| 2026-05-05 17:13 | 5.91005 | -53.04858 | 31012 ft | 469 kts | 310° |
| 2026-05-05 17:13 | 5.93178 | -53.07316 | 31219 ft | 472 kts | 309° |
| 2026-05-05 17:13 | 5.95363 | -53.09787 | 31414 ft | 474 kts | 310° |
| 2026-05-05 17:13 | 5.97557 | -53.12269 | 31622 ft | 476 kts | 310° |
| 2026-05-05 17:14 | 5.99729 | -53.14724 | 31908 ft | 476 kts | 310° |
| 2026-05-05 17:14 | 6.01958 | -53.17240 | 32216 ft | 476 kts | 310° |
| 2026-05-05 17:14 | 6.04156 | -53.19722 | 32491 ft | 476 kts | 310° |
| 2026-05-05 17:14 | 6.06328 | -53.22174 | 32772 ft | 476 kts | 310° |
| 2026-05-05 17:15 | 6.08531 | -53.24664 | 33053 ft | 477 kts | 309° |
| 2026-05-05 17:15 | 6.10737 | -53.27158 | 33356 ft | 477 kts | 309° |
| 2026-05-05 17:15 | 6.12940 | -53.29647 | 33657 ft | 477 kts | 309° |
| 2026-05-05 17:15 | 6.15143 | -53.32137 | 33960 ft | 477 kts | 309° |
| 2026-05-05 17:16 | 6.17344 | -53.34627 | 34228 ft | 477 kts | 309° |
| 2026-05-05 17:16 | 6.19546 | -53.37114 | 34544 ft | 475 kts | 309° |
| 2026-05-05 17:16 | 6.21738 | -53.39590 | 34873 ft | 473 kts | 309° |
| 2026-05-05 17:16 | 6.23918 | -53.42057 | 35209 ft | 470 kts | 309° |
| 2026-05-05 17:17 | 6.26081 | -53.44508 | 35557 ft | 467 kts | 309° |
| 2026-05-05 17:17 | 6.28227 | -53.46941 | 35876 ft | 465 kts | 309° |
| 2026-05-05 17:17 | 6.30366 | -53.49370 | 36204 ft | 462 kts | 309° |
| 2026-05-05 17:17 | 6.32491 | -53.51780 | 36528 ft | 459 kts | 309° |
| 2026-05-05 17:18 | 6.34601 | -53.54170 | 36842 ft | 457 kts | 309° |
| 2026-05-05 17:18 | 6.36705 | -53.56552 | 37164 ft | 454 kts | 309° |
| 2026-05-05 17:18 | 6.38795 | -53.58916 | 37479 ft | 451 kts | 309° |
| 2026-05-05 17:18 | 6.40870 | -53.61270 | 37794 ft | 448 kts | 309° |
| 2026-05-05 17:19 | 6.42933 | -53.63612 | 37977 ft | 446 kts | 309° |
| 2026-05-05 17:19 | 6.44985 | -53.65937 | 38011 ft | 444 kts | 309° |
| 2026-05-05 17:19 | 6.49078 | -53.70569 | 38009 ft | 442 kts | 309° |
| 2026-05-05 17:20 | 6.53159 | -53.75205 | 38010 ft | 443 kts | 309° |
| 2026-05-05 17:20 | 6.57250 | -53.79849 | 38013 ft | 443 kts | 309° |
| 2026-05-05 17:21 | 6.61344 | -53.84484 | 38011 ft | 443 kts | 309° |
| 2026-05-05 17:22 | 6.67470 | -53.91442 | 38014 ft | 443 kts | 309° |
| 2026-05-05 17:22 | 6.71559 | -53.96081 | 38019 ft | 443 kts | 309° |
| 2026-05-05 17:23 | 6.75757 | -54.00626 | 38013 ft | 445 kts | 317° |
| 2026-05-05 17:23 | 6.80501 | -54.04642 | 38012 ft | 446 kts | 317° |
| 2026-05-05 17:24 | 6.85240 | -54.08664 | 38014 ft | 446 kts | 317° |
| 2026-05-05 17:24 | 6.89981 | -54.12696 | 38014 ft | 446 kts | 317° |
| 2026-05-05 17:25 | 6.94733 | -54.16721 | 38016 ft | 446 kts | 317° |
| 2026-05-05 17:25 | 6.99486 | -54.20746 | 38019 ft | 447 kts | 317° |
| 2026-05-05 17:26 | 7.04243 | -54.24777 | 38019 ft | 447 kts | 318° |
| 2026-05-05 17:26 | 7.08989 | -54.28806 | 38025 ft | 446 kts | 318° |
| 2026-05-05 17:27 | 7.13733 | -54.32831 | 38037 ft | 445 kts | 317° |
| 2026-05-05 17:27 | 7.18466 | -54.36842 | 38036 ft | 444 kts | 317° |
| 2026-05-05 17:28 | 7.23188 | -54.40848 | 38036 ft | 444 kts | 318° |
| 2026-05-05 17:28 | 7.27904 | -54.44855 | 38032 ft | 443 kts | 317° |
| 2026-05-05 17:29 | 7.32615 | -54.48859 | 38036 ft | 443 kts | 317° |
| 2026-05-05 17:29 | 7.37325 | -54.52860 | 38041 ft | 442 kts | 318° |
| 2026-05-05 17:30 | 7.42020 | -54.56844 | 38038 ft | 441 kts | 318° |
| 2026-05-05 17:30 | 7.46707 | -54.60830 | 38043 ft | 440 kts | 317° |
| 2026-05-05 17:31 | 7.51374 | -54.64806 | 38042 ft | 439 kts | 317° |
| 2026-05-05 17:31 | 7.56039 | -54.68776 | 38043 ft | 438 kts | 318° |
| 2026-05-05 17:32 | 7.60664 | -54.72710 | 38039 ft | 438 kts | 317° |
| 2026-05-05 17:32 | 7.65351 | -54.76698 | 38034 ft | 437 kts | 318° |
| 2026-05-05 17:33 | 7.69964 | -54.80623 | 38038 ft | 437 kts | 318° |
| 2026-05-05 17:33 | 7.74607 | -54.84578 | 38036 ft | 437 kts | 317° |
| 2026-05-05 17:34 | 7.79238 | -54.88535 | 38043 ft | 436 kts | 317° |
| 2026-05-05 17:34 | 7.83858 | -54.92480 | 38042 ft | 435 kts | 317° |
| 2026-05-05 17:35 | 7.88482 | -54.96414 | 38040 ft | 434 kts | 317° |
| 2026-05-05 17:35 | 7.93099 | -55.00346 | 38037 ft | 434 kts | 317° |
| 2026-05-05 17:36 | 7.97708 | -55.04279 | 38042 ft | 433 kts | 317° |
| 2026-05-05 17:36 | 8.02309 | -55.08205 | 38043 ft | 433 kts | 317° |
| 2026-05-05 17:37 | 8.06904 | -55.12126 | 38040 ft | 433 kts | 317° |
| 2026-05-05 17:37 | 8.11499 | -55.16042 | 38046 ft | 432 kts | 317° |
| 2026-05-05 17:38 | 8.16084 | -55.19960 | 38043 ft | 432 kts | 317° |
| 2026-05-05 17:38 | 8.20663 | -55.23877 | 38041 ft | 431 kts | 317° |
| 2026-05-05 17:39 | 8.25244 | -55.27787 | 38040 ft | 431 kts | 317° |
| 2026-05-05 17:39 | 8.29818 | -55.31695 | 38040 ft | 431 kts | 317° |
| 2026-05-05 17:40 | 8.34389 | -55.35600 | 38037 ft | 430 kts | 317° |
| 2026-05-05 17:40 | 8.38950 | -55.39508 | 38038 ft | 430 kts | 317° |
| 2026-05-05 17:41 | 8.43516 | -55.43416 | 38043 ft | 430 kts | 317° |
| 2026-05-05 17:41 | 8.47321 | -55.46669 | 38011 ft | 432 kts | 317° |
| 2026-05-05 17:42 | 8.51911 | -55.50594 | 38012 ft | 433 kts | 317° |
| 2026-05-05 17:42 | 8.56511 | -55.54538 | 38012 ft | 434 kts | 317° |
| 2026-05-05 17:43 | 8.61121 | -55.58492 | 38011 ft | 435 kts | 317° |
| 2026-05-05 17:43 | 8.65742 | -55.62450 | 38018 ft | 435 kts | 317° |
| 2026-05-05 17:44 | 8.70366 | -55.66411 | 38030 ft | 436 kts | 317° |
| 2026-05-05 17:44 | 8.74989 | -55.70371 | 38032 ft | 436 kts | 317° |
| 2026-05-05 17:45 | 8.79612 | -55.74339 | 38042 ft | 436 kts | 316° |
| 2026-05-05 17:45 | 8.84228 | -55.78306 | 38039 ft | 436 kts | 317° |
| 2026-05-05 17:46 | 8.88850 | -55.82269 | 38039 ft | 436 kts | 317° |
| 2026-05-05 17:46 | 8.93469 | -55.86232 | 38038 ft | 436 kts | 317° |
| 2026-05-05 17:47 | 8.98090 | -55.90202 | 38043 ft | 435 kts | 317° |
| 2026-05-05 17:47 | 9.02701 | -55.94168 | 38040 ft | 435 kts | 317° |
| 2026-05-05 17:48 | 9.07318 | -55.98139 | 38036 ft | 435 kts | 317° |
| 2026-05-05 17:48 | 9.11929 | -56.02102 | 38043 ft | 435 kts | 317° |
| 2026-05-05 17:49 | 9.16546 | -56.06074 | 38042 ft | 435 kts | 317° |
| 2026-05-05 17:49 | 9.21125 | -56.10019 | 38038 ft | 435 kts | 317° |
| 2026-05-05 17:50 | 9.25744 | -56.13990 | 38044 ft | 435 kts | 317° |
| 2026-05-05 17:50 | 9.30353 | -56.17959 | 38037 ft | 435 kts | 317° |
| 2026-05-05 17:51 | 9.34965 | -56.21934 | 38045 ft | 435 kts | 317° |
| 2026-05-05 17:51 | 9.39572 | -56.25909 | 38036 ft | 435 kts | 317° |
| 2026-05-05 17:52 | 9.44179 | -56.29888 | 38040 ft | 435 kts | 317° |
| 2026-05-05 17:52 | 9.48789 | -56.33861 | 38038 ft | 435 kts | 318° |
| 2026-05-05 17:53 | 9.53399 | -56.37836 | 38041 ft | 435 kts | 318° |
| 2026-05-05 17:53 | 9.58006 | -56.41817 | 38040 ft | 435 kts | 317° |
| 2026-05-05 17:54 | 9.62617 | -56.45788 | 38043 ft | 435 kts | 317° |
| 2026-05-05 17:54 | 9.67226 | -56.49766 | 38047 ft | 435 kts | 317° |
| 2026-05-05 17:55 | 9.71827 | -56.53750 | 38042 ft | 435 kts | 318° |
| 2026-05-05 17:55 | 9.76436 | -56.57731 | 38046 ft | 435 kts | 317° |
| 2026-05-05 17:56 | 9.81039 | -56.61710 | 38053 ft | 434 kts | 319° |
| 2026-05-05 17:56 | 9.85636 | -56.65684 | 38046 ft | 434 kts | 318° |
| 2026-05-05 17:57 | 9.90227 | -56.69661 | 38054 ft | 434 kts | 318° |
| 2026-05-05 17:57 | 9.94812 | -56.73631 | 38053 ft | 433 kts | 319° |
| 2026-05-05 17:58 | 9.99397 | -56.77610 | 38035 ft | 434 kts | 318° |
| 2026-05-05 17:58 | 10.03987 | -56.81580 | 38050 ft | 433 kts | 318° |
| 2026-05-05 17:59 | 10.08567 | -56.85545 | 38052 ft | 433 kts | 319° |
| 2026-05-05 17:59 | 10.13145 | -56.89520 | 38032 ft | 434 kts | 319° |
| 2026-05-05 18:00 | 10.17733 | -56.93503 | 38033 ft | 434 kts | 319° |
| 2026-05-05 18:00 | 10.22319 | -56.97477 | 38049 ft | 433 kts | 319° |
| 2026-05-05 18:01 | 10.26901 | -57.01456 | 38035 ft | 434 kts | 319° |
| 2026-05-05 18:01 | 10.31487 | -57.05442 | 38038 ft | 434 kts | 319° |
| 2026-05-05 18:02 | 10.36070 | -57.09424 | 38056 ft | 434 kts | 319° |
| 2026-05-05 18:02 | 10.40623 | -57.13382 | 38037 ft | 434 kts | 319° |
| 2026-05-05 18:03 | 10.45210 | -57.17374 | 38051 ft | 434 kts | 319° |
| 2026-05-05 18:03 | 10.49823 | -57.21390 | 38055 ft | 433 kts | 320° |
| 2026-05-05 18:04 | 10.54372 | -57.25347 | 38056 ft | 433 kts | 320° |
| 2026-05-05 18:04 | 10.58955 | -57.29330 | 38043 ft | 434 kts | 320° |
| 2026-05-05 18:05 | 10.63532 | -57.33320 | 38058 ft | 433 kts | 320° |
| 2026-05-05 18:05 | 10.68107 | -57.37307 | 38052 ft | 433 kts | 320° |
| 2026-05-05 18:06 | 10.72686 | -57.41288 | 38048 ft | 433 kts | 320° |
| 2026-05-05 18:06 | 10.77255 | -57.45273 | 38053 ft | 432 kts | 320° |
| 2026-05-05 18:07 | 10.81815 | -57.49249 | 38055 ft | 432 kts | 320° |
| 2026-05-05 18:07 | 10.86382 | -57.53233 | 38043 ft | 433 kts | 321° |
| 2026-05-05 18:08 | 10.90945 | -57.57225 | 38064 ft | 432 kts | 321° |
| 2026-05-05 18:08 | 10.95505 | -57.61212 | 38049 ft | 432 kts | 321° |
| 2026-05-05 18:09 | 11.00067 | -57.65202 | 38038 ft | 433 kts | 321° |
| 2026-05-05 18:09 | 11.04641 | -57.69194 | 38049 ft | 433 kts | 321° |
| 2026-05-05 18:10 | 11.09207 | -57.73186 | 38058 ft | 433 kts | 321° |
| 2026-05-05 18:10 | 11.13768 | -57.77186 | 38050 ft | 433 kts | 320° |
| 2026-05-05 18:11 | 11.18334 | -57.81189 | 38057 ft | 433 kts | 320° |
| 2026-05-05 18:11 | 11.22899 | -57.85183 | 38056 ft | 433 kts | 321° |
| 2026-05-05 18:12 | 11.27465 | -57.89177 | 38051 ft | 433 kts | 320° |
| 2026-05-05 18:12 | 11.32033 | -57.93175 | 38055 ft | 433 kts | 321° |
| 2026-05-05 18:13 | 11.36596 | -57.97179 | 38060 ft | 433 kts | 320° |
| 2026-05-05 18:13 | 11.41124 | -58.01152 | 38050 ft | 432 kts | 320° |
| 2026-05-05 18:14 | 11.45715 | -58.05176 | 38051 ft | 432 kts | 320° |
| 2026-05-05 18:14 | 11.50272 | -58.09170 | 38063 ft | 432 kts | 320° |
| 2026-05-05 18:15 | 11.54823 | -58.13176 | 38054 ft | 432 kts | 321° |
| 2026-05-05 18:15 | 11.59367 | -58.17182 | 38047 ft | 432 kts | 320° |
| 2026-05-05 18:16 | 11.63930 | -58.21182 | 38060 ft | 432 kts | 321° |
| 2026-05-05 18:16 | 11.68487 | -58.25179 | 38052 ft | 432 kts | 320° |
| 2026-05-05 18:17 | 11.73041 | -58.29194 | 38060 ft | 432 kts | 321° |
| 2026-05-05 18:17 | 11.77591 | -58.33199 | 38071 ft | 432 kts | 321° |
| 2026-05-05 18:18 | 11.82114 | -58.37184 | 38056 ft | 432 kts | 320° |
| 2026-05-05 18:18 | 11.86663 | -58.41197 | 38057 ft | 432 kts | 320° |
| 2026-05-05 18:19 | 11.91215 | -58.45211 | 38069 ft | 432 kts | 321° |
| 2026-05-05 18:19 | 11.95797 | -58.49248 | 38057 ft | 432 kts | 320° |
| 2026-05-05 18:20 | 12.00351 | -58.53267 | 38062 ft | 433 kts | 320° |
| 2026-05-05 18:20 | 12.04872 | -58.57270 | 38065 ft | 433 kts | 321° |
| 2026-05-05 18:21 | 12.09425 | -58.61292 | 38065 ft | 433 kts | 320° |
| 2026-05-05 18:21 | 12.13982 | -58.65317 | 38064 ft | 433 kts | 321° |
| 2026-05-05 18:22 | 12.18546 | -58.69346 | 38059 ft | 433 kts | 321° |
| 2026-05-05 18:22 | 12.23105 | -58.73371 | 38064 ft | 433 kts | 320° |
| 2026-05-05 18:23 | 12.27669 | -58.77407 | 38057 ft | 434 kts | 320° |
| 2026-05-05 18:23 | 12.32231 | -58.81449 | 38059 ft | 434 kts | 320° |
| 2026-05-05 18:24 | 12.36795 | -58.85487 | 38058 ft | 434 kts | 320° |
| 2026-05-05 18:24 | 12.41360 | -58.89533 | 38060 ft | 434 kts | 321° |
| 2026-05-05 18:25 | 12.45919 | -58.93585 | 38072 ft | 434 kts | 320° |
| 2026-05-05 18:25 | 12.50470 | -58.97636 | 38065 ft | 434 kts | 320° |
| 2026-05-05 18:26 | 12.55037 | -59.01683 | 38061 ft | 434 kts | 320° |
| 2026-05-05 18:26 | 12.59605 | -59.05731 | 38068 ft | 434 kts | 320° |
| 2026-05-05 18:27 | 12.63397 | -59.09097 | 38068 ft | 434 kts | 320° |
| 2026-05-05 18:27 | 12.67960 | -59.13156 | 38065 ft | 435 kts | 320° |
| 2026-05-05 18:28 | 12.74806 | -59.19245 | 38068 ft | 434 kts | 320° |
| 2026-05-05 18:28 | 12.79369 | -59.23306 | 38066 ft | 434 kts | 320° |
| 2026-05-05 18:29 | 12.83929 | -59.27369 | 38064 ft | 434 kts | 320° |
| 2026-05-05 18:29 | 12.88491 | -59.31429 | 38075 ft | 434 kts | 321° |
| 2026-05-05 18:30 | 12.93053 | -59.35489 | 38066 ft | 434 kts | 320° |
| 2026-05-05 18:30 | 12.97616 | -59.39557 | 38068 ft | 435 kts | 320° |
| 2026-05-05 18:31 | 13.02184 | -59.43625 | 38072 ft | 435 kts | 320° |
| 2026-05-05 18:31 | 13.06748 | -59.47696 | 38071 ft | 435 kts | 320° |
| 2026-05-05 18:32 | 13.11200 | -59.51906 | 38070 ft | 436 kts | 317° |
| 2026-05-05 18:32 | 13.15480 | -59.56307 | 38069 ft | 436 kts | 316° |
| 2026-05-05 18:33 | 13.19751 | -59.60719 | 38069 ft | 435 kts | 317° |
| 2026-05-05 18:33 | 13.24067 | -59.65085 | 38068 ft | 436 kts | 317° |
| 2026-05-05 18:34 | 13.28398 | -59.69434 | 38073 ft | 436 kts | 317° |
| 2026-05-05 18:34 | 13.32726 | -59.73790 | 38063 ft | 435 kts | 316° |
| 2026-05-05 18:35 | 13.37049 | -59.78151 | 38065 ft | 436 kts | 316° |
| 2026-05-05 18:35 | 13.39218 | -59.80340 | 37528 ft | 440 kts | 317° |
| 2026-05-05 18:35 | 13.41437 | -59.82579 | 36281 ft | 453 kts | 317° |
| 2026-05-05 18:36 | 13.43674 | -59.84835 | 35843 ft | 446 kts | 317° |
| 2026-05-05 18:36 | 13.45871 | -59.87055 | 35333 ft | 441 kts | 317° |
| 2026-05-05 18:36 | 13.48024 | -59.89233 | 34785 ft | 439 kts | 316° |
| 2026-05-05 18:36 | 13.50190 | -59.91428 | 34239 ft | 436 kts | 317° |
| 2026-05-05 18:37 | 13.52346 | -59.93612 | 33642 ft | 434 kts | 316° |
| 2026-05-05 18:37 | 13.54488 | -59.95781 | 33095 ft | 431 kts | 316° |
| 2026-05-05 18:37 | 13.56614 | -59.97930 | 32564 ft | 427 kts | 316° |
| 2026-05-05 18:37 | 13.58726 | -60.00065 | 32025 ft | 424 kts | 316° |
| 2026-05-05 18:38 | 13.60825 | -60.02186 | 31499 ft | 422 kts | 316° |
| 2026-05-05 18:38 | 13.62910 | -60.04296 | 30978 ft | 420 kts | 316° |
| 2026-05-05 18:38 | 13.64985 | -60.06396 | 30462 ft | 418 kts | 316° |
| 2026-05-05 18:38 | 13.67049 | -60.08487 | 29930 ft | 416 kts | 316° |
| 2026-05-05 18:39 | 13.69105 | -60.10570 | 29391 ft | 413 kts | 315° |
| 2026-05-05 18:39 | 13.71138 | -60.12632 | 28923 ft | 409 kts | 315° |
| 2026-05-05 18:39 | 13.73149 | -60.14674 | 28444 ft | 405 kts | 316° |
| 2026-05-05 18:39 | 13.75145 | -60.16699 | 27967 ft | 401 kts | 316° |
| 2026-05-05 18:40 | 13.77126 | -60.18711 | 27520 ft | 399 kts | 316° |
| 2026-05-05 18:40 | 13.79089 | -60.20707 | 27066 ft | 396 kts | 316° |
| 2026-05-05 18:40 | 13.81044 | -60.22691 | 26599 ft | 393 kts | 315° |
| 2026-05-05 18:40 | 13.82985 | -60.24659 | 26136 ft | 391 kts | 315° |
| 2026-05-05 18:41 | 13.84917 | -60.26619 | 25672 ft | 389 kts | 315° |
| 2026-05-05 18:41 | 13.86841 | -60.28569 | 25187 ft | 388 kts | 315° |
| 2026-05-05 18:41 | 13.88758 | -60.30513 | 24704 ft | 387 kts | 315° |
| 2026-05-05 18:41 | 13.90670 | -60.32454 | 24204 ft | 386 kts | 316° |
| 2026-05-05 18:42 | 13.92581 | -60.34395 | 23699 ft | 386 kts | 315° |
| 2026-05-05 18:42 | 13.94493 | -60.36338 | 23124 ft | 385 kts | 315° |
| 2026-05-05 18:42 | 13.96390 | -60.38269 | 22612 ft | 383 kts | 315° |
| 2026-05-05 18:42 | 13.98276 | -60.40192 | 22126 ft | 380 kts | 316° |
| 2026-05-05 18:43 | 14.00153 | -60.42103 | 21623 ft | 378 kts | 316° |
| 2026-05-05 18:43 | 14.02022 | -60.44002 | 21138 ft | 376 kts | 316° |
| 2026-05-05 18:43 | 14.03866 | -60.45904 | 20654 ft | 375 kts | 313° |
| 2026-05-05 18:43 | 14.05384 | -60.48075 | 20162 ft | 375 kts | 301° |
| 2026-05-05 18:44 | 14.06622 | -60.50434 | 19669 ft | 374 kts | 300° |
| 2026-05-05 18:44 | 14.07839 | -60.52752 | 19183 ft | 373 kts | 300° |
| 2026-05-05 18:44 | 14.09074 | -60.55093 | 18696 ft | 372 kts | 301° |
| 2026-05-05 18:44 | 14.10310 | -60.57424 | 18289 ft | 368 kts | 300° |
| 2026-05-05 18:45 | 14.11536 | -60.59740 | 17715 ft | 368 kts | 301° |
| 2026-05-05 18:45 | 14.12752 | -60.62048 | 17223 ft | 366 kts | 301° |
| 2026-05-05 18:45 | 14.13964 | -60.64344 | 16758 ft | 364 kts | 301° |
| 2026-05-05 18:45 | 14.15172 | -60.66631 | 16294 ft | 362 kts | 301° |
| 2026-05-05 18:46 | 14.16375 | -60.68907 | 15847 ft | 361 kts | 300° |
| 2026-05-05 18:46 | 14.17570 | -60.71174 | 15398 ft | 359 kts | 300° |
| 2026-05-05 18:46 | 14.18762 | -60.73435 | 14950 ft | 358 kts | 300° |
| 2026-05-05 18:46 | 14.19947 | -60.75685 | 14508 ft | 357 kts | 300° |
| 2026-05-05 18:47 | 14.21133 | -60.77933 | 14070 ft | 356 kts | 300° |
| 2026-05-05 18:47 | 14.22315 | -60.80173 | 13587 ft | 355 kts | 300° |
| 2026-05-05 18:47 | 14.23491 | -60.82402 | 13141 ft | 353 kts | 300° |
| 2026-05-05 18:47 | 14.24657 | -60.84618 | 12697 ft | 350 kts | 300° |
| 2026-05-05 18:48 | 14.25815 | -60.86819 | 12250 ft | 348 kts | 300° |
| 2026-05-05 18:48 | 14.26963 | -60.89005 | 11811 ft | 346 kts | 300° |
| 2026-05-05 18:48 | 14.28106 | -60.91180 | 11364 ft | 344 kts | 300° |
| 2026-05-05 18:48 | 14.29235 | -60.93323 | 11162 ft | 334 kts | 300° |
| 2026-05-05 18:49 | 14.30324 | -60.95397 | 10969 ft | 325 kts | 300° |
| 2026-05-05 18:49 | 14.31392 | -60.97430 | 10680 ft | 320 kts | 299° |
| 2026-05-05 18:49 | 14.32443 | -60.99437 | 10330 ft | 316 kts | 299° |
| 2026-05-05 18:49 | 14.33480 | -61.01417 | 9656 ft | 312 kts | 299° |
| 2026-05-05 18:50 | 14.34512 | -61.03380 | 8911 ft | 310 kts | 299° |
| 2026-05-05 18:50 | 14.35535 | -61.05325 | 8230 ft | 306 kts | 299° |
| 2026-05-05 18:50 | 14.36533 | -61.07221 | 7765 ft | 295 kts | 299° |
| 2026-05-05 18:50 | 14.37495 | -61.09048 | 7338 ft | 285 kts | 298° |
| 2026-05-05 18:51 | 14.38423 | -61.10810 | 6902 ft | 275 kts | 298° |
| 2026-05-05 18:51 | 14.39328 | -61.12533 | 6492 ft | 273 kts | 298° |
| 2026-05-05 18:51 | 14.40231 | -61.14249 | 6047 ft | 271 kts | 298° |
| 2026-05-05 18:51 | 14.41132 | -61.15968 | 5601 ft | 273 kts | 298° |
| 2026-05-05 18:52 | 14.42033 | -61.17694 | 5154 ft | 274 kts | 298° |
| 2026-05-05 18:52 | 14.42940 | -61.19427 | 4716 ft | 275 kts | 298° |
| 2026-05-05 18:52 | 14.43885 | -61.21128 | 4427 ft | 269 kts | 308° |
| 2026-05-05 18:52 | 14.45218 | -61.22366 | 4360 ft | 250 kts | 334° |
| 2026-05-05 18:53 | 14.46770 | -61.22912 | 4273 ft | 231 kts | 358° |
| 2026-05-05 18:53 | 14.48314 | -61.22827 | 4176 ft | 218 kts | 20° |
| 2026-05-05 18:53 | 14.49759 | -61.22392 | 4076 ft | 216 kts | 22° |
| 2026-05-05 18:53 | 14.51198 | -61.21954 | 3976 ft | 215 kts | 22° |
| 2026-05-05 18:54 | 14.52636 | -61.21516 | 3871 ft | 216 kts | 21° |
| 2026-05-05 18:54 | 14.54069 | -61.21072 | 3776 ft | 214 kts | 24° |
| 2026-05-05 18:54 | 14.55262 | -61.20271 | 3676 ft | 202 kts | 53° |
| 2026-05-05 18:54 | 14.55902 | -61.19010 | 3412 ft | 199 kts | 79° |
| 2026-05-05 18:55 | 14.56141 | -61.17613 | 3110 ft | 194 kts | 81° |
| 2026-05-05 18:55 | 14.56368 | -61.16270 | 2846 ft | 186 kts | 81° |
| 2026-05-05 18:55 | 14.56590 | -61.14971 | 2583 ft | 181 kts | 80° |
| 2026-05-05 18:55 | 14.56806 | -61.13713 | 2321 ft | 178 kts | 81° |
| 2026-05-05 18:56 | 14.57022 | -61.12451 | 2091 ft | 177 kts | 81° |
| 2026-05-05 18:56 | 14.57235 | -61.11214 | 2010 ft | 174 kts | 81° |
| 2026-05-05 18:56 | 14.57442 | -61.10011 | 2029 ft | 160 kts | 82° |
| 2026-05-05 18:56 | 14.57623 | -61.08940 | 1809 ft | 149 kts | 82° |
| 2026-05-05 18:57 | 14.57788 | -61.07906 | 1420 ft | 144 kts | 81° |
| 2026-05-05 18:57 | 14.57953 | -61.06893 | 985 ft | 144 kts | 81° |
| 2026-05-05 18:57 | 14.58131 | -61.05911 | 770 ft | 129 kts | 81° |
| 2026-05-05 18:57 | 14.58294 | -61.05003 | 643 ft | 126 kts | 82° |
| 2026-05-05 18:58 | 14.58447 | -61.04132 | 497 ft | 123 kts | 83° |
| 2026-05-05 18:58 | 14.58599 | -61.03259 | 338 ft | 123 kts | 83° |
| 2026-05-05 18:58 | 14.58749 | -61.02392 | 176 ft | 122 kts | 80° |
| 2026-05-05 18:58 | 14.58898 | -61.01529 | 35 ft | 120 kts | 80° |
| 2026-05-05 18:59 | 14.59020 | -61.00819 | 23 ft | 76 kts | 79° |
| 2026-05-05 18:59 | 14.59083 | -61.00459 | 15 ft | 26 kts | 80° |
| 2026-05-05 18:59 | 14.59100 | -61.00360 | 16 ft | 12 kts | 79° |
| 2026-05-05 18:59 | 14.59115 | -61.00273 | 16 ft | 13 kts | 80° |
| 2026-05-05 19:00 | 14.59132 | -61.00172 | 16 ft | 15 kts | 80° |
| 2026-05-05 19:00 | 14.59151 | -61.00063 | 19 ft | 16 kts | 77° |
| 2026-05-05 19:00 | 14.59236 | -61.00029 | 20 ft | 15 kts | 349° |
| 2026-05-05 19:00 | 14.59263 | -61.00035 | 20 ft | 0 kts | 349° |
| 2026-05-05 19:03 | 14.59281 | -61.00038 | 20 ft | 6 kts | 349° |
| 2026-05-05 19:03 | 14.59341 | -61.00050 | 19 ft | 11 kts | 342° |
| 2026-05-05 19:03 | 14.59388 | -61.00117 | 19 ft | 13 kts | 294° |
| 2026-05-05 19:04 | 14.59433 | -61.00195 | 19 ft | 12 kts | 308° |
| 2026-05-05 19:04 | 14.59492 | -61.00256 | 19 ft | 12 kts | 321° |
| 2026-05-05 19:04 | 14.59549 | -61.00272 | 19 ft | 8 kts | 60° |
| 2026-05-05 19:04 | 14.59571 | -61.00229 | 20 ft | 2 kts | 62° |
| 2026-05-05 19:05 | 14.59576 | -61.00220 | 19 ft | 0 kts | 62° |
| 2026-05-05 19:05 | 14.59578 | -61.00215 | 18 ft | 1 kts | 63° |
| 2026-05-05 19:05 | 14.59580 | -61.00211 | 19 ft | 0 kts | 63° |